createdAt,value
2022-11-20T00:00:45.236Z,27.93
2022-11-20T00:03:13.002Z,30.53
2022-11-20T00:05:40.575Z,26.67
2022-11-20T00:08:08.240Z,27.53
2022-11-20T00:10:39.577Z,25.53
2022-11-20T00:13:07.794Z,28.80
2022-11-20T00:15:35.597Z,29.60
2022-11-20T00:18:03.298Z,27.23
2022-11-20T00:20:31.222Z,32.43
2022-11-20T00:22:59.280Z,25.80
2022-11-20T00:25:26.931Z,28.37
2022-11-20T00:27:55.989Z,27.53
2022-11-20T00:30:23.755Z,25.70
2022-11-20T00:32:51.627Z,30.50
2022-11-20T00:35:20.131Z,26.73
2022-11-20T00:37:48.018Z,30.53
2022-11-20T00:40:15.863Z,29.27
2022-11-20T00:42:43.512Z,26.80
2022-11-20T00:45:12.756Z,28.13
2022-11-20T00:47:40.528Z,30.37
2022-11-20T00:50:08.752Z,28.43
2022-11-20T00:52:36.341Z,29.23
2022-11-20T00:55:04.162Z,26.63
2022-11-20T00:57:31.911Z,25.80
2022-11-20T00:59:59.572Z,28.83
2022-11-20T01:02:28.570Z,31.27
2022-11-20T01:04:56.153Z,28.43
2022-11-20T01:07:23.977Z,24.73
2022-11-20T01:09:51.673Z,29.00
2022-11-20T01:12:19.251Z,27.73
2022-11-20T01:14:47.350Z,28.90
2022-11-20T01:17:14.911Z,27.77
2022-11-20T01:19:43.956Z,26.37
2022-11-20T01:22:11.823Z,26.37
2022-11-20T01:24:39.426Z,33.60
2022-11-20T01:27:07.222Z,29.40
2022-11-20T01:29:35.005Z,32.83
2022-11-20T01:32:02.668Z,29.27
2022-11-20T01:34:30.470Z,28.17
2022-11-20T01:36:59.477Z,25.83
2022-11-20T01:39:28.555Z,27.87
2022-11-20T01:42:15.348Z,28.93
2022-11-20T01:44:50.942Z,27.80
2022-11-20T01:47:22.150Z,28.03
2022-11-20T01:49:53.215Z,30.03
2022-11-20T01:52:23.742Z,33.07
2022-11-20T01:54:55.889Z,28.67
2022-11-20T01:57:24.182Z,27.30
2022-11-20T01:59:56.356Z,33.20
2022-11-20T02:02:24.122Z,32.37
2022-11-20T02:04:53.938Z,30.83
2022-11-20T02:07:26.919Z,26.43
2022-11-20T02:09:58.713Z,29.07
2022-11-20T02:12:48.328Z,33.47
2022-11-20T02:15:17.590Z,31.00
2022-11-20T02:17:46.357Z,30.07
2022-11-20T02:20:14.932Z,33.43
2022-11-20T02:22:54.850Z,27.30
2022-11-20T02:25:26.571Z,30.30
2022-11-20T02:27:56.607Z,27.37
2022-11-20T02:30:25.161Z,30.30
2022-11-20T02:32:56.928Z,28.73
2022-11-20T02:35:46.420Z,37.87
2022-11-20T02:38:15.696Z,29.97
2022-11-20T02:40:45.165Z,31.23
2022-11-20T02:43:13.441Z,28.60
2022-11-20T02:45:43.958Z,29.20
2022-11-20T02:48:12.050Z,29.10
2022-11-20T02:50:45.242Z,29.87
2022-11-20T02:53:13.601Z,31.40
2022-11-20T02:55:46.322Z,29.83
2022-11-20T02:58:14.884Z,29.53
2022-11-20T03:00:43.469Z,30.57
2022-11-20T03:03:11.711Z,33.17
2022-11-20T03:05:40.253Z,29.77
2022-11-20T03:08:08.628Z,28.10
2022-11-20T03:10:40.410Z,30.27
2022-11-20T03:13:14.070Z,28.93
2022-11-20T03:15:43.660Z,30.77
2022-11-20T03:18:11.792Z,34.27
2022-11-20T03:20:40.226Z,31.50
2022-11-20T03:23:09.456Z,30.63
2022-11-20T03:25:37.697Z,32.30
2022-11-20T03:28:05.559Z,29.43
2022-11-20T03:30:34.877Z,31.07
2022-11-20T03:33:02.666Z,30.43
2022-11-20T03:35:30.576Z,28.63
2022-11-20T03:38:04.774Z,25.47
2022-11-20T03:40:34.562Z,31.47
2022-11-20T03:43:02.204Z,30.47
2022-11-20T03:45:30.011Z,26.90
2022-11-20T03:47:59.165Z,32.33
2022-11-20T03:50:27.043Z,28.00
2022-11-20T03:52:55.702Z,27.93
2022-11-20T03:55:24.880Z,33.90
2022-11-20T03:57:53.133Z,31.03
2022-11-20T04:00:21.652Z,31.60
2022-11-20T04:02:49.849Z,29.80
2022-11-20T04:05:19.654Z,30.47
2022-11-20T04:07:48.342Z,32.30
2022-11-20T04:10:16.708Z,29.90
2022-11-20T04:12:45.090Z,31.23
2022-11-20T04:15:13.739Z,30.30
2022-11-20T04:17:42.676Z,31.93
2022-11-20T04:20:14.687Z,33.80
2022-11-20T04:22:44.605Z,29.67
2022-11-20T04:25:13.006Z,29.90
2022-11-20T04:27:41.274Z,28.63
2022-11-20T04:30:10.755Z,27.23
2022-11-20T04:32:39.863Z,33.27
2022-11-20T04:35:08.750Z,30.13
2022-11-20T04:37:37.023Z,31.63
2022-11-20T04:40:08.377Z,32.43
2022-11-20T04:42:36.844Z,31.60
2022-11-20T04:45:05.650Z,32.13
2022-11-20T04:47:34.073Z,30.50
2022-11-20T04:50:02.869Z,29.23
2022-11-20T04:52:32.307Z,31.37
2022-11-20T04:55:00.563Z,34.00
2022-11-20T04:57:30.164Z,34.50
2022-11-20T04:59:57.789Z,35.20
2022-11-20T05:02:25.596Z,32.90
2022-11-20T05:04:53.242Z,36.53
2022-11-20T05:07:21.001Z,36.73
2022-11-20T05:09:48.600Z,34.03
2022-11-20T05:12:16.210Z,35.00
2022-11-20T05:14:45.124Z,35.23
2022-11-20T05:17:13.381Z,31.50
2022-11-20T05:19:40.918Z,33.13
2022-11-20T05:22:08.505Z,36.63
2022-11-20T05:24:36.147Z,34.53
2022-11-20T05:27:03.993Z,28.93
2022-11-20T05:29:31.564Z,31.93
2022-11-20T05:32:00.489Z,28.80
2022-11-20T05:34:28.069Z,29.13
2022-11-20T05:36:55.601Z,33.37
2022-11-20T05:39:23.513Z,30.57
2022-11-20T05:42:11.485Z,30.00
2022-11-20T05:44:39.107Z,30.10
2022-11-20T05:47:08.140Z,28.87
2022-11-20T05:49:35.741Z,29.47
2022-11-20T05:52:03.320Z,28.77
2022-11-20T05:54:30.923Z,28.60
2022-11-20T05:56:58.466Z,34.07
2022-11-20T05:59:26.025Z,30.77
2022-11-20T06:01:53.657Z,30.40
2022-11-20T06:04:22.549Z,27.53
2022-11-20T06:06:50.165Z,30.60
2022-11-20T06:09:17.758Z,30.77
2022-11-20T06:11:45.319Z,32.43
2022-11-20T06:14:12.936Z,32.53
2022-11-20T06:16:40.529Z,34.33
2022-11-20T06:19:08.093Z,29.73
2022-11-20T06:21:37.009Z,31.20
2022-11-20T06:24:05.041Z,32.13
2022-11-20T06:26:32.729Z,33.83
2022-11-20T06:29:00.413Z,33.00
2022-11-20T06:31:28.188Z,32.60
2022-11-20T06:33:56.134Z,34.60
2022-11-20T06:36:25.174Z,31.20
2022-11-20T06:38:54.232Z,33.80
2022-11-20T06:41:23.320Z,32.83
2022-11-20T06:43:51.726Z,26.57
2022-11-20T06:46:20.691Z,29.83
2022-11-20T06:48:49.426Z,28.37
2022-11-20T06:51:17.695Z,29.30
2022-11-20T06:53:45.849Z,27.63
2022-11-20T06:56:14.997Z,29.20
2022-11-20T06:58:42.630Z,30.63
2022-11-20T07:01:18.180Z,29.33
2022-11-20T07:03:50.035Z,30.20
2022-11-20T07:06:20.631Z,25.53
2022-11-20T07:08:48.910Z,26.20
2022-11-20T07:11:18.055Z,25.83
2022-11-20T07:13:45.863Z,26.67
2022-11-20T07:16:13.497Z,25.40
2022-11-20T07:18:44.733Z,25.17
2022-11-20T07:21:15.427Z,25.80
2022-11-20T07:23:43.017Z,26.20
2022-11-20T07:26:12.736Z,26.10
2022-11-20T07:28:41.870Z,27.33
2022-11-20T07:31:12.403Z,24.67
2022-11-20T07:33:43.658Z,27.47
2022-11-20T07:36:11.486Z,24.30
2022-11-20T07:38:39.345Z,28.80
2022-11-20T07:41:06.940Z,25.20
2022-11-20T07:43:39.913Z,26.57
2022-11-20T07:46:10.622Z,28.00
2022-11-20T07:48:38.273Z,24.87
2022-11-20T07:51:06.027Z,23.90
2022-11-20T07:53:33.811Z,24.60
2022-11-20T07:56:02.009Z,22.70
2022-11-20T07:58:30.961Z,23.77
2022-11-20T08:00:59.107Z,29.23
2022-11-20T08:03:28.170Z,27.00
2022-11-20T08:05:55.906Z,25.17
2022-11-20T08:08:23.806Z,25.77
2022-11-20T08:10:51.532Z,22.40
2022-11-20T08:13:36.593Z,22.97
2022-11-20T08:16:04.563Z,21.77
2022-11-20T08:18:33.637Z,22.47
2022-11-20T08:21:04.440Z,26.70
2022-11-20T08:23:32.061Z,24.00
2022-11-20T08:25:59.671Z,24.03
2022-11-20T08:28:27.397Z,27.07
2022-11-20T08:31:00.197Z,25.73
2022-11-20T08:33:27.927Z,24.27
2022-11-20T08:36:00.929Z,23.63
2022-11-20T08:38:28.609Z,25.23
2022-11-20T08:41:16.660Z,24.33
2022-11-20T08:43:44.429Z,22.33
2022-11-20T08:46:12.009Z,25.13
2022-11-20T08:48:40.418Z,23.67
2022-11-20T08:51:10.041Z,27.67
2022-11-20T08:53:37.793Z,28.23
2022-11-20T08:56:06.016Z,22.40
2022-11-20T08:58:54.905Z,23.17
2022-11-20T09:01:22.304Z,20.87
2022-11-20T09:03:50.036Z,19.50
2022-11-20T09:06:19.012Z,19.33
2022-11-20T09:08:46.983Z,17.87
2022-11-20T09:11:14.707Z,19.67
2022-11-20T09:13:42.249Z,18.23
2022-11-20T09:16:11.512Z,19.67
2022-11-20T09:18:39.743Z,15.87
2022-11-20T09:21:08.816Z,14.27
2022-11-20T09:23:38.829Z,15.43
2022-11-20T09:26:07.319Z,17.67
2022-11-20T09:28:35.170Z,15.87
2022-11-20T09:31:02.991Z,14.43
2022-11-20T09:33:30.570Z,17.63
2022-11-20T09:35:58.597Z,16.77
2022-11-20T09:38:26.233Z,15.20
2022-11-20T09:40:59.307Z,17.67
2022-11-20T09:43:36.379Z,20.53
2022-11-20T09:46:09.986Z,16.37
2022-11-20T09:48:45.357Z,16.07
2022-11-20T09:51:23.051Z,16.93
2022-11-20T09:54:02.542Z,22.13
2022-11-20T09:56:31.491Z,23.67
2022-11-20T09:59:02.002Z,21.03
2022-11-20T10:01:33.598Z,19.00
2022-11-20T10:04:03.827Z,22.57
2022-11-20T10:06:32.754Z,16.90
2022-11-20T10:09:08.953Z,20.40
2022-11-20T10:11:47.841Z,30.50
2022-11-20T10:14:23.728Z,26.67
2022-11-20T10:16:58.232Z,19.20
2022-11-20T10:19:37.662Z,18.33
2022-11-20T10:22:13.944Z,20.83
2022-11-20T10:24:46.083Z,24.57
2022-11-20T10:27:37.058Z,26.60
2022-11-20T10:30:09.913Z,20.47
2022-11-20T10:32:39.828Z,17.53
2022-11-20T10:35:12.026Z,18.67
2022-11-20T10:37:43.228Z,18.77
2022-11-20T10:40:21.870Z,16.77
2022-11-20T10:42:54.789Z,16.70
2022-11-20T10:45:33.646Z,16.43
2022-11-20T10:48:12.570Z,18.67
2022-11-20T10:50:43.404Z,16.97
2022-11-20T10:53:20.338Z,16.57
2022-11-20T10:55:51.631Z,16.83
2022-11-20T10:58:27.873Z,16.17
2022-11-20T11:01:05.454Z,15.47
2022-11-20T11:03:33.523Z,16.97
2022-11-20T11:06:04.550Z,19.30
2022-11-20T11:08:37.570Z,21.47
2022-11-20T11:11:18.032Z,19.93
2022-11-20T11:13:47.037Z,18.73
2022-11-20T11:16:22.495Z,17.23
2022-11-20T11:18:50.138Z,17.73
2022-11-20T11:21:23.634Z,17.87
2022-11-20T11:24:13.438Z,19.20
2022-11-20T11:26:54.193Z,18.70
2022-11-20T11:29:23.206Z,22.53
2022-11-20T11:31:51.016Z,20.27
2022-11-20T11:34:19.487Z,17.20
2022-11-20T11:36:54.852Z,17.77
2022-11-20T11:39:23.058Z,18.20
2022-11-20T11:41:50.872Z,19.90
2022-11-20T11:44:37.631Z,19.27
2022-11-20T11:47:12.246Z,16.50
2022-11-20T11:49:39.865Z,16.87
2022-11-20T11:52:14.941Z,16.33
2022-11-20T11:54:48.018Z,17.50
2022-11-20T11:57:21.893Z,22.63
2022-11-20T11:59:57.003Z,19.83
2022-11-20T12:02:33.640Z,19.50
2022-11-20T12:05:04.382Z,16.73
2022-11-20T12:07:48.574Z,16.60
2022-11-20T12:10:22.948Z,17.17
2022-11-20T12:12:54.715Z,14.80
2022-11-20T12:15:28.964Z,15.37
2022-11-20T12:17:58.100Z,16.30
2022-11-20T12:20:28.385Z,15.83
2022-11-20T12:23:01.715Z,15.10
2022-11-20T12:25:31.181Z,17.33
2022-11-20T12:28:26.382Z,16.70
2022-11-20T12:31:06.769Z,15.33
2022-11-20T12:34:04.718Z,15.23
2022-11-20T12:36:39.551Z,16.27
2022-11-20T12:39:18.230Z,17.13
2022-11-20T12:42:10.984Z,15.63
2022-11-20T12:45:12.759Z,17.47
2022-11-20T12:47:53.949Z,17.20
2022-11-20T12:50:35.197Z,19.47
2022-11-20T12:53:26.028Z,16.63
2022-11-20T12:55:58.961Z,17.40
2022-11-20T12:58:32.036Z,16.77
2022-11-20T13:01:02.874Z,13.13
2022-11-20T13:03:39.065Z,16.73
2022-11-20T13:06:16.228Z,17.93
2022-11-20T13:08:46.297Z,17.23
2022-11-20T13:11:18.065Z,15.13
2022-11-20T13:13:58.093Z,14.03
2022-11-20T13:16:29.572Z,14.53
2022-11-20T13:18:57.238Z,16.60
2022-11-20T13:21:39.326Z,12.20
2022-11-20T13:24:07.393Z,11.90
2022-11-20T13:26:35.011Z,14.73
2022-11-20T13:29:09.950Z,14.17
2022-11-20T13:31:39.468Z,16.83
2022-11-20T13:34:08.651Z,20.13
2022-11-20T13:36:37.702Z,26.23
2022-11-20T13:39:05.342Z,24.17
2022-11-20T13:41:36.125Z,22.37
2022-11-20T13:44:12.232Z,17.17
2022-11-20T13:46:43.764Z,16.70
2022-11-20T13:49:12.884Z,15.10
2022-11-20T13:51:46.169Z,12.60
2022-11-20T13:54:38.411Z,8.80
2022-11-20T13:57:14.227Z,10.40
2022-11-20T13:59:48.617Z,8.53
2022-11-20T14:02:17.678Z,9.77
2022-11-20T14:04:47.431Z,9.37
2022-11-20T14:07:17.528Z,10.60
2022-11-20T14:09:53.249Z,9.37
2022-11-20T14:12:22.607Z,7.90
2022-11-20T14:14:52.233Z,7.17
2022-11-20T14:17:22.173Z,6.37
2022-11-20T14:19:51.116Z,10.30
2022-11-20T14:22:22.648Z,15.80
2022-11-20T14:24:51.440Z,10.20
2022-11-20T14:27:21.088Z,7.10
2022-11-20T14:29:50.286Z,7.47
2022-11-20T14:32:19.613Z,5.30
2022-11-20T14:34:49.905Z,7.43
2022-11-20T14:37:22.748Z,8.63
2022-11-20T14:39:52.762Z,5.73
2022-11-20T14:42:21.812Z,8.83
2022-11-20T14:44:50.500Z,5.73
2022-11-20T14:47:20.969Z,6.67
2022-11-20T14:49:49.243Z,4.70
2022-11-20T14:52:18.213Z,8.30
2022-11-20T14:54:48.177Z,8.73
2022-11-20T14:57:27.798Z,4.10
2022-11-20T15:00:07.910Z,8.30
2022-11-20T15:02:35.715Z,7.53
2022-11-20T15:05:04.472Z,7.10
2022-11-20T15:07:35.249Z,7.83
2022-11-20T15:10:06.108Z,4.93
2022-11-20T15:12:34.446Z,4.90
2022-11-20T15:15:02.873Z,4.30
2022-11-20T15:17:30.766Z,5.17
2022-11-20T15:19:58.548Z,3.27
2022-11-20T15:22:26.145Z,7.97
2022-11-20T15:24:53.735Z,4.27
2022-11-20T15:27:22.653Z,3.27
2022-11-20T15:29:50.262Z,5.13
2022-11-20T15:32:17.905Z,4.83
2022-11-20T15:34:45.506Z,7.43
2022-11-20T15:37:13.098Z,5.40
2022-11-20T15:39:40.685Z,6.63
2022-11-20T15:42:08.314Z,3.83
2022-11-20T15:44:37.321Z,2.77
2022-11-20T15:47:05.090Z,4.13
2022-11-20T15:49:32.718Z,2.43
2022-11-20T15:52:00.295Z,3.10
2022-11-20T15:54:27.920Z,3.43
2022-11-20T15:56:55.540Z,4.87
2022-11-20T15:59:23.134Z,2.80
2022-11-20T16:01:52.218Z,4.17
2022-11-20T16:04:20.500Z,5.83
2022-11-20T16:06:48.476Z,4.30
2022-11-20T16:09:16.126Z,2.40
2022-11-20T16:11:43.726Z,6.03
2022-11-20T16:14:31.995Z,3.90
2022-11-20T16:17:00.937Z,4.47
2022-11-20T16:19:28.524Z,5.23
2022-11-20T16:22:02.628Z,9.70
2022-11-20T16:24:30.858Z,14.53
2022-11-20T16:26:58.849Z,8.83
2022-11-20T16:29:26.431Z,6.77
2022-11-20T16:31:53.999Z,5.93
2022-11-20T16:34:22.951Z,7.90
2022-11-20T16:36:50.511Z,12.10
2022-11-20T16:39:23.357Z,12.73
2022-11-20T16:41:51.579Z,35.67
2022-11-20T16:44:19.178Z,41.63
2022-11-20T16:46:46.779Z,24.43
2022-11-20T16:49:15.585Z,11.93
2022-11-20T16:51:44.643Z,14.83
2022-11-20T16:54:16.420Z,15.23
2022-11-20T16:56:44.158Z,12.90
2022-11-20T16:59:11.786Z,12.00
2022-11-20T17:01:41.721Z,15.73
2022-11-20T17:04:09.373Z,11.33
2022-11-20T17:06:38.946Z,12.27
2022-11-20T17:09:09.535Z,12.30
2022-11-20T17:11:38.196Z,6.50
2022-11-20T17:14:07.287Z,10.83
2022-11-20T17:16:36.098Z,10.03
2022-11-20T17:19:05.230Z,12.97
2022-11-20T17:21:33.343Z,14.33
2022-11-20T17:24:01.846Z,10.67
2022-11-20T17:26:30.870Z,10.90
2022-11-20T17:29:00.082Z,8.13
2022-11-20T17:31:28.359Z,7.80
2022-11-20T17:33:55.971Z,9.50
2022-11-20T17:36:23.834Z,10.13
2022-11-20T17:38:51.965Z,15.40
2022-11-20T17:41:22.141Z,15.87
2022-11-20T17:43:51.161Z,8.63
2022-11-20T17:46:20.614Z,4.60
2022-11-20T17:48:49.673Z,3.23
2022-11-20T17:51:19.338Z,4.63
2022-11-20T17:53:48.133Z,6.17
2022-11-20T17:56:33.645Z,3.63
2022-11-20T17:59:05.766Z,6.23
2022-11-20T18:01:33.425Z,4.17
2022-11-20T18:04:01.057Z,5.13
2022-11-20T18:06:30.022Z,2.67
2022-11-20T18:08:58.950Z,5.10
2022-11-20T18:11:27.826Z,4.23
2022-11-20T18:14:14.319Z,3.70
2022-11-20T18:16:45.904Z,4.67
2022-11-20T18:19:15.586Z,4.70
2022-11-20T18:21:43.325Z,4.83
2022-11-20T18:24:11.398Z,3.43
2022-11-20T18:26:44.071Z,3.50
2022-11-20T18:29:12.376Z,8.27
2022-11-20T18:31:40.260Z,2.90
2022-11-20T18:34:12.897Z,3.17
2022-11-20T18:36:40.913Z,4.83
2022-11-20T18:39:08.591Z,5.17
2022-11-20T18:41:53.877Z,4.73
2022-11-20T18:44:40.863Z,3.50
2022-11-20T18:47:14.263Z,3.73
2022-11-20T18:49:46.123Z,4.83
2022-11-20T18:52:14.237Z,2.80
2022-11-20T18:54:42.001Z,2.60
2022-11-20T18:57:14.369Z,3.87
2022-11-20T18:59:42.825Z,1.67
2022-11-20T19:02:12.138Z,3.20
2022-11-20T19:04:39.941Z,2.43
2022-11-20T19:07:11.887Z,1.77
2022-11-20T19:09:39.912Z,2.60
2022-11-20T19:12:08.342Z,1.30
2022-11-20T19:14:36.026Z,1.40
2022-11-20T19:17:04.205Z,2.97
2022-11-20T19:19:31.815Z,3.00
2022-11-20T19:21:59.444Z,1.77
2022-11-20T19:24:29.173Z,1.30
2022-11-20T19:26:57.235Z,2.97
2022-11-20T19:29:26.738Z,1.60
2022-11-20T19:31:54.581Z,3.03
2022-11-20T19:34:22.229Z,1.23
2022-11-20T19:36:49.791Z,1.27
2022-11-20T19:39:17.860Z,1.40
2022-11-20T19:41:46.907Z,3.40
2022-11-20T19:44:15.851Z,5.27
2022-11-20T19:46:43.932Z,4.03
2022-11-20T19:49:13.026Z,2.13
2022-11-20T19:51:46.397Z,2.63
2022-11-20T19:54:14.514Z,3.13
2022-11-20T19:56:42.204Z,2.13
2022-11-20T19:59:11.103Z,2.10
2022-11-20T20:01:38.730Z,2.20
2022-11-20T20:04:07.000Z,1.60
2022-11-20T20:06:36.162Z,2.23
2022-11-20T20:09:06.008Z,2.50
2022-11-20T20:11:34.593Z,3.93
2022-11-20T20:14:03.589Z,1.60
2022-11-20T20:16:32.662Z,4.07
2022-11-20T20:19:01.848Z,2.40
2022-11-20T20:21:30.532Z,1.83
2022-11-20T20:24:00.724Z,1.50
2022-11-20T20:26:29.798Z,2.17
2022-11-20T20:28:57.714Z,3.93
2022-11-20T20:31:27.546Z,2.87
2022-11-20T20:33:57.030Z,2.00
2022-11-20T20:36:25.360Z,3.03
2022-11-20T20:38:53.220Z,4.53
2022-11-20T20:41:21.691Z,2.93
2022-11-20T20:44:06.664Z,2.70
2022-11-20T20:46:34.473Z,1.93
2022-11-20T20:49:03.410Z,3.40
2022-11-20T20:51:31.132Z,4.57
2022-11-20T20:53:59.332Z,6.00
2022-11-20T20:56:27.017Z,3.40
2022-11-20T20:58:54.701Z,5.23
2022-11-20T21:01:22.715Z,4.67
2022-11-20T21:03:50.355Z,4.40
2022-11-20T21:06:19.280Z,3.47
2022-11-20T21:08:47.017Z,3.43
2022-11-20T21:11:15.872Z,6.23
2022-11-20T21:13:44.604Z,5.80
2022-11-20T21:16:13.155Z,7.43
2022-11-20T21:18:40.839Z,6.80
2022-11-20T21:21:27.714Z,7.10
2022-11-20T21:23:56.902Z,5.67
2022-11-20T21:26:24.464Z,9.30
2022-11-20T21:28:52.119Z,7.07
2022-11-20T21:31:22.634Z,5.50
2022-11-20T21:33:52.234Z,6.17
2022-11-20T21:36:21.384Z,2.37
2022-11-20T21:38:49.612Z,3.93
2022-11-20T21:41:18.781Z,4.70
2022-11-20T21:44:09.192Z,5.43
2022-11-20T21:46:39.697Z,5.13
2022-11-20T21:49:07.459Z,6.17
2022-11-20T21:51:35.179Z,3.63
2022-11-20T21:54:02.938Z,4.20
2022-11-20T21:56:31.932Z,5.93
2022-11-20T21:58:59.640Z,5.87
2022-11-20T22:01:29.208Z,6.67
2022-11-20T22:03:58.447Z,6.23
2022-11-20T22:06:27.042Z,2.93
2022-11-20T22:08:54.614Z,6.27
2022-11-20T22:11:23.090Z,5.17
2022-11-20T22:14:09.873Z,4.43
2022-11-20T22:16:38.543Z,5.43
2022-11-20T22:19:07.052Z,8.83
2022-11-20T22:21:35.070Z,6.17
2022-11-20T22:24:02.776Z,5.43
2022-11-20T22:26:36.096Z,6.13
2022-11-20T22:29:07.778Z,4.03
2022-11-20T22:31:35.391Z,7.73
2022-11-20T22:34:03.764Z,8.23
2022-11-20T22:36:32.479Z,8.20
2022-11-20T22:39:03.396Z,3.37
2022-11-20T22:41:31.666Z,5.40
2022-11-20T22:44:00.714Z,7.70
2022-11-20T22:46:31.925Z,7.53
2022-11-20T22:49:01.309Z,7.67
2022-11-20T22:51:30.360Z,3.30
2022-11-20T22:53:58.119Z,3.73
2022-11-20T22:56:26.661Z,7.37
2022-11-20T22:58:55.362Z,4.03
2022-11-20T23:01:24.251Z,6.43
2022-11-20T23:03:55.810Z,3.77
2022-11-20T23:06:24.311Z,1.67
2022-11-20T23:08:52.542Z,4.00
2022-11-20T23:11:21.577Z,6.17
2022-11-20T23:13:52.891Z,3.30
2022-11-20T23:16:20.937Z,3.57
2022-11-20T23:18:48.566Z,6.67
2022-11-20T23:21:19.561Z,5.93
2022-11-20T23:23:49.419Z,1.57
2022-11-20T23:26:19.129Z,1.27
2022-11-20T23:28:47.346Z,1.53
2022-11-20T23:31:16.269Z,4.37
2022-11-20T23:33:45.064Z,1.63
2022-11-20T23:36:13.083Z,3.63
2022-11-20T23:38:42.282Z,2.00
2022-11-20T23:41:10.028Z,3.27
2022-11-20T23:43:37.651Z,4.63
2022-11-20T23:46:05.771Z,1.03
2022-11-20T23:48:35.743Z,4.13
2022-11-20T23:51:03.961Z,2.63
2022-11-20T23:53:32.128Z,1.43
2022-11-20T23:56:03.306Z,1.60
2022-11-20T23:58:32.966Z,4.00
